20343 RKSI-ZYTX
Flight info
| Callsign | 20343 |
|---|---|
| Flight time | 1h 47m |
| Altitude | 25600 |
| Route | RKSI NOPI2A NOPIK G597 DONVO A326 SANKO W107 CHI A588 TOSID TOS62A ZYTX |
| Aircraft | Y20/H-SDE2E3FGHIJ4J5M1RWXYZ/LB1D1 |
Departure
| Time | 2026-04-20 20:36 |
|---|---|
| Airport | Incheon International Airport (RKSI) |
Arrival
| Time | 2026-04-20 22:23 |
|---|---|
| Airport | Shenyang Taoxian International Airport (ZYTX) |
| Time | Latitude | Longitude | Altitude | Speed | Heading |
|---|---|---|---|---|---|
| 2026-04-20 20:16 | 37.47132 | 126.42244 | 31 ft | 0 kts | 234° |
| 2026-04-20 20:27 | 37.47126 | 126.42234 | 32 ft | 3 kts | 234° |
| 2026-04-20 20:28 | 37.47114 | 126.42212 | 31 ft | 6 kts | 234° |
| 2026-04-20 20:28 | 37.47056 | 126.42170 | 32 ft | 9 kts | 146° |
| 2026-04-20 20:28 | 37.47001 | 126.42215 | 31 ft | 8 kts | 170° |
| 2026-04-20 20:28 | 37.46953 | 126.42165 | 32 ft | 11 kts | 230° |
| 2026-04-20 20:29 | 37.46877 | 126.42177 | 30 ft | 14 kts | 141° |
| 2026-04-20 20:29 | 37.46800 | 126.42247 | 30 ft | 14 kts | 144° |
| 2026-04-20 20:29 | 37.46718 | 126.42320 | 32 ft | 15 kts | 144° |
| 2026-04-20 20:29 | 37.46634 | 126.42395 | 33 ft | 15 kts | 144° |
| 2026-04-20 20:30 | 37.46547 | 126.42472 | 31 ft | 15 kts | 144° |
| 2026-04-20 20:30 | 37.46459 | 126.42550 | 33 ft | 16 kts | 144° |
| 2026-04-20 20:30 | 37.46357 | 126.42642 | 31 ft | 20 kts | 144° |
| 2026-04-20 20:30 | 37.46234 | 126.42751 | 32 ft | 23 kts | 144° |
| 2026-04-20 20:31 | 37.46093 | 126.42877 | 32 ft | 26 kts | 144° |
| 2026-04-20 20:31 | 37.45953 | 126.43001 | 33 ft | 24 kts | 145° |
| 2026-04-20 20:31 | 37.45816 | 126.43123 | 33 ft | 24 kts | 144° |
| 2026-04-20 20:31 | 37.45681 | 126.43243 | 31 ft | 24 kts | 145° |
| 2026-04-20 20:32 | 37.45547 | 126.43362 | 32 ft | 23 kts | 144° |
| 2026-04-20 20:32 | 37.45413 | 126.43482 | 32 ft | 24 kts | 145° |
| 2026-04-20 20:32 | 37.45327 | 126.43558 | 32 ft | 24 kts | 144° |
| 2026-04-20 20:32 | 37.45190 | 126.43680 | 32 ft | 24 kts | 144° |
| 2026-04-20 20:33 | 37.45015 | 126.43835 | 31 ft | 23 kts | 145° |
| 2026-04-20 20:33 | 37.44925 | 126.43916 | 33 ft | 23 kts | 144° |
| 2026-04-20 20:33 | 37.44793 | 126.44033 | 33 ft | 23 kts | 145° |
| 2026-04-20 20:33 | 37.44660 | 126.44149 | 33 ft | 23 kts | 143° |
| 2026-04-20 20:34 | 37.44540 | 126.44259 | 31 ft | 21 kts | 145° |
| 2026-04-20 20:34 | 37.44449 | 126.44322 | 31 ft | 11 kts | 182° |
| 2026-04-20 20:34 | 37.44395 | 126.44250 | 31 ft | 12 kts | 236° |
| 2026-04-20 20:34 | 37.44368 | 126.44160 | 31 ft | 10 kts | 280° |
| 2026-04-20 20:35 | 37.44405 | 126.44109 | 30 ft | 0 kts | 326° |
| 2026-04-20 20:35 | 37.44407 | 126.44107 | 30 ft | 2 kts | 326° |
| 2026-04-20 20:35 | 37.44587 | 126.43948 | 33 ft | 70 kts | 324° |
| 2026-04-20 20:36 | 37.45176 | 126.43421 | 30 ft | 135 kts | 324° |
| 2026-04-20 20:36 | 37.46087 | 126.42619 | 105 ft | 177 kts | 324° |
| 2026-04-20 20:36 | 37.47100 | 126.41695 | 662 ft | 182 kts | 321° |
| 2026-04-20 20:36 | 37.48017 | 126.40576 | 1296 ft | 187 kts | 309° |
| 2026-04-20 20:37 | 37.48874 | 126.39302 | 1967 ft | 191 kts | 307° |
| 2026-04-20 20:37 | 37.49733 | 126.37965 | 2653 ft | 200 kts | 308° |
| 2026-04-20 20:37 | 37.50366 | 126.36403 | 3378 ft | 210 kts | 285° |
| 2026-04-20 20:37 | 37.50478 | 126.34513 | 4100 ft | 223 kts | 275° |
| 2026-04-20 20:38 | 37.50515 | 126.32577 | 4865 ft | 232 kts | 275° |
| 2026-04-20 20:38 | 37.50553 | 126.30509 | 5635 ft | 241 kts | 275° |
| 2026-04-20 20:38 | 37.50592 | 126.28460 | 6364 ft | 247 kts | 275° |
| 2026-04-20 20:38 | 37.50638 | 126.26212 | 7159 ft | 251 kts | 276° |
| 2026-04-20 20:39 | 37.50686 | 126.24044 | 7896 ft | 253 kts | 276° |
| 2026-04-20 20:39 | 37.50735 | 126.21921 | 8632 ft | 254 kts | 276° |
| 2026-04-20 20:39 | 37.50729 | 126.19672 | 9431 ft | 259 kts | 269° |
| 2026-04-20 20:39 | 37.50282 | 126.17447 | 10225 ft | 269 kts | 254° |
| 2026-04-20 20:40 | 37.49330 | 126.15372 | 10969 ft | 278 kts | 244° |
| 2026-04-20 20:40 | 37.48250 | 126.13325 | 11732 ft | 283 kts | 244° |
| 2026-04-20 20:40 | 37.47161 | 126.11250 | 12495 ft | 287 kts | 244° |
| 2026-04-20 20:40 | 37.46036 | 126.09092 | 12919 ft | 303 kts | 244° |
| 2026-04-20 20:41 | 37.44852 | 126.06820 | 13321 ft | 313 kts | 244° |
| 2026-04-20 20:41 | 37.43647 | 126.04523 | 13723 ft | 316 kts | 243° |
| 2026-04-20 20:41 | 37.42426 | 126.02206 | 14093 ft | 318 kts | 243° |
| 2026-04-20 20:41 | 37.41428 | 125.99850 | 14427 ft | 311 kts | 254° |
| 2026-04-20 20:42 | 37.40843 | 125.97259 | 14805 ft | 306 kts | 265° |
| 2026-04-20 20:42 | 37.40691 | 125.94615 | 15176 ft | 304 kts | 273° |
| 2026-04-20 20:42 | 37.40673 | 125.91952 | 15552 ft | 305 kts | 273° |
| 2026-04-20 20:42 | 37.40645 | 125.89288 | 15932 ft | 306 kts | 273° |
| 2026-04-20 20:43 | 37.40613 | 125.86618 | 16301 ft | 307 kts | 273° |
| 2026-04-20 20:43 | 37.40581 | 125.83942 | 16698 ft | 309 kts | 273° |
| 2026-04-20 20:43 | 37.40548 | 125.81322 | 17029 ft | 310 kts | 273° |
| 2026-04-20 20:43 | 37.40509 | 125.78537 | 17369 ft | 311 kts | 273° |
| 2026-04-20 20:44 | 37.40473 | 125.75801 | 17697 ft | 312 kts | 273° |
| 2026-04-20 20:44 | 37.40438 | 125.73107 | 18026 ft | 315 kts | 273° |
| 2026-04-20 20:44 | 37.40402 | 125.70303 | 18360 ft | 317 kts | 273° |
| 2026-04-20 20:44 | 37.40365 | 125.67588 | 18643 ft | 318 kts | 273° |
| 2026-04-20 20:45 | 37.40331 | 125.64754 | 18924 ft | 317 kts | 273° |
| 2026-04-20 20:45 | 37.40297 | 125.61981 | 19210 ft | 316 kts | 273° |
| 2026-04-20 20:45 | 37.40259 | 125.59235 | 19489 ft | 315 kts | 273° |
| 2026-04-20 20:45 | 37.40218 | 125.56508 | 19774 ft | 313 kts | 273° |
| 2026-04-20 20:46 | 37.40177 | 125.53756 | 20058 ft | 312 kts | 273° |
| 2026-04-20 20:46 | 37.40134 | 125.51029 | 20358 ft | 311 kts | 272° |
| 2026-04-20 20:46 | 37.40093 | 125.48321 | 20649 ft | 310 kts | 272° |
| 2026-04-20 20:46 | 37.40051 | 125.45607 | 20948 ft | 309 kts | 272° |
| 2026-04-20 20:47 | 37.40013 | 125.42930 | 21250 ft | 308 kts | 272° |
| 2026-04-20 20:47 | 37.39975 | 125.40256 | 21553 ft | 307 kts | 272° |
| 2026-04-20 20:47 | 37.39936 | 125.37571 | 21862 ft | 306 kts | 272° |
| 2026-04-20 20:47 | 37.39892 | 125.34902 | 22136 ft | 305 kts | 272° |
| 2026-04-20 20:48 | 37.39846 | 125.32238 | 22397 ft | 304 kts | 272° |
| 2026-04-20 20:48 | 37.39800 | 125.29585 | 22661 ft | 303 kts | 272° |
| 2026-04-20 20:48 | 37.39755 | 125.26932 | 22928 ft | 303 kts | 272° |
| 2026-04-20 20:48 | 37.39714 | 125.24291 | 23211 ft | 302 kts | 272° |
| 2026-04-20 20:49 | 37.39671 | 125.21650 | 23486 ft | 302 kts | 272° |
| 2026-04-20 20:49 | 37.39626 | 125.19026 | 23748 ft | 301 kts | 272° |
| 2026-04-20 20:49 | 37.39580 | 125.16462 | 23966 ft | 302 kts | 272° |
| 2026-04-20 20:49 | 37.39533 | 125.13784 | 24194 ft | 302 kts | 272° |
| 2026-04-20 20:50 | 37.39487 | 125.11217 | 24413 ft | 303 kts | 272° |
| 2026-04-20 20:50 | 37.39437 | 125.08514 | 24629 ft | 305 kts | 272° |
| 2026-04-20 20:50 | 37.39391 | 125.05827 | 24710 ft | 305 kts | 272° |
| 2026-04-20 20:50 | 37.39351 | 125.03243 | 24712 ft | 305 kts | 272° |
| 2026-04-20 20:51 | 37.39306 | 125.00532 | 24710 ft | 306 kts | 271° |
| 2026-04-20 20:51 | 37.39257 | 124.97853 | 24731 ft | 307 kts | 271° |
| 2026-04-20 20:51 | 37.39204 | 124.95150 | 24727 ft | 301 kts | 271° |
| 2026-04-20 20:51 | 37.39150 | 124.92615 | 24725 ft | 290 kts | 271° |
| 2026-04-20 20:52 | 37.39097 | 124.90108 | 24727 ft | 287 kts | 271° |
| 2026-04-20 20:52 | 37.39047 | 124.87611 | 24733 ft | 286 kts | 272° |
| 2026-04-20 20:52 | 37.38945 | 124.85099 | 24733 ft | 288 kts | 266° |
| 2026-04-20 20:52 | 37.38412 | 124.82648 | 24724 ft | 297 kts | 255° |
| 2026-04-20 20:53 | 37.37385 | 124.80342 | 24727 ft | 305 kts | 248° |
| 2026-04-20 20:53 | 37.36282 | 124.78130 | 24728 ft | 305 kts | 248° |
| 2026-04-20 20:53 | 37.35193 | 124.75945 | 24723 ft | 305 kts | 248° |
| 2026-04-20 20:53 | 37.34073 | 124.73693 | 24727 ft | 305 kts | 248° |
| 2026-04-20 20:54 | 37.32949 | 124.71433 | 24734 ft | 305 kts | 249° |
| 2026-04-20 20:54 | 37.31832 | 124.69181 | 24732 ft | 305 kts | 249° |
| 2026-04-20 20:54 | 37.30713 | 124.66918 | 24690 ft | 305 kts | 249° |
| 2026-04-20 20:54 | 37.29600 | 124.64659 | 24694 ft | 305 kts | 248° |
| 2026-04-20 20:55 | 37.28475 | 124.62393 | 24703 ft | 306 kts | 248° |
| 2026-04-20 20:55 | 37.27344 | 124.60129 | 24703 ft | 306 kts | 248° |
| 2026-04-20 20:55 | 37.26214 | 124.57868 | 24705 ft | 306 kts | 248° |
| 2026-04-20 20:55 | 37.25079 | 124.55602 | 24710 ft | 306 kts | 248° |
| 2026-04-20 20:56 | 37.23949 | 124.53344 | 24710 ft | 306 kts | 248° |
| 2026-04-20 20:56 | 37.22830 | 124.51103 | 24713 ft | 306 kts | 248° |
| 2026-04-20 20:56 | 37.21707 | 124.48855 | 24716 ft | 306 kts | 248° |
| 2026-04-20 20:56 | 37.20569 | 124.46577 | 24730 ft | 306 kts | 248° |
| 2026-04-20 20:57 | 37.19440 | 124.44312 | 24728 ft | 307 kts | 248° |
| 2026-04-20 20:57 | 37.18489 | 124.41960 | 24699 ft | 298 kts | 257° |
| 2026-04-20 20:57 | 37.17986 | 124.39461 | 24709 ft | 293 kts | 267° |
| 2026-04-20 20:57 | 37.17861 | 124.36930 | 24716 ft | 291 kts | 271° |
| 2026-04-20 20:58 | 37.17786 | 124.34394 | 24725 ft | 291 kts | 271° |
| 2026-04-20 20:58 | 37.17711 | 124.31890 | 24721 ft | 291 kts | 271° |
| 2026-04-20 20:58 | 37.17632 | 124.29328 | 24723 ft | 291 kts | 271° |
| 2026-04-20 20:58 | 37.17552 | 124.26797 | 24731 ft | 290 kts | 271° |
| 2026-04-20 20:59 | 37.17471 | 124.24270 | 24724 ft | 290 kts | 271° |
| 2026-04-20 20:59 | 37.17389 | 124.21740 | 24724 ft | 290 kts | 271° |
| 2026-04-20 20:59 | 37.17306 | 124.19219 | 24728 ft | 290 kts | 271° |
| 2026-04-20 20:59 | 37.17222 | 124.16686 | 24723 ft | 291 kts | 271° |
| 2026-04-20 21:00 | 37.17137 | 124.14149 | 24722 ft | 291 kts | 271° |
| 2026-04-20 21:00 | 37.17055 | 124.11626 | 24722 ft | 291 kts | 271° |
| 2026-04-20 21:00 | 37.16973 | 124.09159 | 24733 ft | 291 kts | 271° |
| 2026-04-20 21:00 | 37.16887 | 124.06557 | 24724 ft | 291 kts | 271° |
| 2026-04-20 21:01 | 37.16801 | 124.04007 | 24729 ft | 291 kts | 271° |
| 2026-04-20 21:01 | 37.16882 | 124.01491 | 24723 ft | 289 kts | 280° |
| 2026-04-20 21:01 | 37.17471 | 123.99076 | 24727 ft | 291 kts | 291° |
| 2026-04-20 21:01 | 37.18542 | 123.96907 | 24722 ft | 296 kts | 301° |
| 2026-04-20 21:02 | 37.19794 | 123.94847 | 24722 ft | 297 kts | 301° |
| 2026-04-20 21:02 | 37.21012 | 123.92842 | 24718 ft | 296 kts | 301° |
| 2026-04-20 21:02 | 37.22215 | 123.90840 | 24717 ft | 297 kts | 301° |
| 2026-04-20 21:02 | 37.23473 | 123.88752 | 24716 ft | 297 kts | 301° |
| 2026-04-20 21:03 | 37.24741 | 123.86647 | 24719 ft | 297 kts | 301° |
| 2026-04-20 21:03 | 37.25976 | 123.84606 | 24720 ft | 297 kts | 301° |
| 2026-04-20 21:03 | 37.27225 | 123.82541 | 24722 ft | 297 kts | 301° |
| 2026-04-20 21:03 | 37.28476 | 123.80471 | 24723 ft | 297 kts | 301° |
| 2026-04-20 21:04 | 37.29726 | 123.78401 | 24718 ft | 297 kts | 301° |
| 2026-04-20 21:04 | 37.30969 | 123.76333 | 24719 ft | 297 kts | 301° |
| 2026-04-20 21:04 | 37.32204 | 123.74273 | 24718 ft | 297 kts | 301° |
| 2026-04-20 21:04 | 37.33460 | 123.72181 | 24721 ft | 297 kts | 301° |
| 2026-04-20 21:05 | 37.34707 | 123.70107 | 24723 ft | 298 kts | 301° |
| 2026-04-20 21:05 | 37.35957 | 123.68026 | 24725 ft | 298 kts | 301° |
| 2026-04-20 21:05 | 37.37202 | 123.65953 | 24725 ft | 298 kts | 301° |
| 2026-04-20 21:05 | 37.38448 | 123.63875 | 24722 ft | 298 kts | 301° |
| 2026-04-20 21:06 | 37.39694 | 123.61793 | 24719 ft | 298 kts | 301° |
| 2026-04-20 21:06 | 37.40927 | 123.59730 | 24717 ft | 298 kts | 301° |
| 2026-04-20 21:06 | 37.42182 | 123.57635 | 24718 ft | 298 kts | 301° |
| 2026-04-20 21:06 | 37.43432 | 123.55550 | 24719 ft | 298 kts | 301° |
| 2026-04-20 21:07 | 37.44678 | 123.53465 | 24718 ft | 298 kts | 301° |
| 2026-04-20 21:07 | 37.45900 | 123.51420 | 24720 ft | 298 kts | 301° |
| 2026-04-20 21:07 | 37.47146 | 123.49337 | 24720 ft | 298 kts | 301° |
| 2026-04-20 21:07 | 37.48392 | 123.47253 | 24718 ft | 298 kts | 301° |
| 2026-04-20 21:08 | 37.49648 | 123.45147 | 24721 ft | 298 kts | 301° |
| 2026-04-20 21:08 | 37.50903 | 123.43038 | 24722 ft | 298 kts | 301° |
| 2026-04-20 21:08 | 37.52131 | 123.40976 | 24723 ft | 298 kts | 301° |
| 2026-04-20 21:08 | 37.53381 | 123.38878 | 24758 ft | 298 kts | 301° |
| 2026-04-20 21:09 | 37.54611 | 123.36809 | 24752 ft | 297 kts | 301° |
| 2026-04-20 21:09 | 37.55861 | 123.34701 | 24751 ft | 297 kts | 301° |
| 2026-04-20 21:09 | 37.57171 | 123.32683 | 24749 ft | 301 kts | 307° |
| 2026-04-20 21:09 | 37.58641 | 123.30811 | 24747 ft | 301 kts | 307° |
| 2026-04-20 21:10 | 37.60113 | 123.28940 | 24749 ft | 300 kts | 307° |
| 2026-04-20 21:10 | 37.61574 | 123.27082 | 24747 ft | 300 kts | 307° |
| 2026-04-20 21:10 | 37.63057 | 123.25196 | 24742 ft | 300 kts | 307° |
| 2026-04-20 21:10 | 37.64527 | 123.23321 | 24740 ft | 300 kts | 307° |
| 2026-04-20 21:11 | 37.65976 | 123.21468 | 24732 ft | 300 kts | 307° |
| 2026-04-20 21:11 | 37.67452 | 123.19578 | 24727 ft | 300 kts | 307° |
| 2026-04-20 21:11 | 37.68919 | 123.17703 | 24726 ft | 300 kts | 307° |
| 2026-04-20 21:11 | 37.70383 | 123.15830 | 24728 ft | 300 kts | 307° |
| 2026-04-20 21:12 | 37.71820 | 123.13987 | 24727 ft | 300 kts | 307° |
| 2026-04-20 21:12 | 37.73286 | 123.12104 | 24724 ft | 300 kts | 307° |
| 2026-04-20 21:12 | 37.74742 | 123.10231 | 24723 ft | 300 kts | 307° |
| 2026-04-20 21:12 | 37.76230 | 123.08317 | 24723 ft | 300 kts | 307° |
| 2026-04-20 21:13 | 37.77675 | 123.06461 | 24715 ft | 300 kts | 307° |
| 2026-04-20 21:13 | 37.79142 | 123.04581 | 24713 ft | 300 kts | 307° |
| 2026-04-20 21:13 | 37.80610 | 123.02702 | 24711 ft | 301 kts | 307° |
| 2026-04-20 21:13 | 37.82071 | 123.00825 | 24713 ft | 301 kts | 307° |
| 2026-04-20 21:14 | 37.83539 | 122.98939 | 24709 ft | 301 kts | 307° |
| 2026-04-20 21:14 | 37.85002 | 122.97056 | 24710 ft | 301 kts | 307° |
| 2026-04-20 21:14 | 37.86477 | 122.95155 | 24711 ft | 301 kts | 307° |
| 2026-04-20 21:14 | 37.87940 | 122.93265 | 24753 ft | 300 kts | 307° |
| 2026-04-20 21:15 | 37.89393 | 122.91387 | 24756 ft | 299 kts | 307° |
| 2026-04-20 21:15 | 37.90846 | 122.89507 | 24748 ft | 299 kts | 307° |
| 2026-04-20 21:15 | 37.92304 | 122.87620 | 24745 ft | 298 kts | 307° |
| 2026-04-20 21:15 | 37.93756 | 122.85745 | 24739 ft | 298 kts | 307° |
| 2026-04-20 21:16 | 37.95205 | 122.83869 | 24734 ft | 297 kts | 307° |
| 2026-04-20 21:16 | 37.96654 | 122.81996 | 24734 ft | 297 kts | 307° |
| 2026-04-20 21:16 | 37.98104 | 122.80120 | 24729 ft | 297 kts | 307° |
| 2026-04-20 21:16 | 37.99549 | 122.78250 | 24730 ft | 297 kts | 307° |
| 2026-04-20 21:17 | 38.00966 | 122.76411 | 24727 ft | 297 kts | 307° |
| 2026-04-20 21:17 | 38.02414 | 122.74531 | 24724 ft | 297 kts | 307° |
| 2026-04-20 21:17 | 38.03856 | 122.72657 | 24719 ft | 297 kts | 307° |
| 2026-04-20 21:17 | 38.05296 | 122.70781 | 24716 ft | 296 kts | 307° |
| 2026-04-20 21:18 | 38.06727 | 122.68920 | 24715 ft | 296 kts | 307° |
| 2026-04-20 21:18 | 38.08180 | 122.67033 | 24712 ft | 296 kts | 307° |
| 2026-04-20 21:18 | 38.09612 | 122.65175 | 24711 ft | 296 kts | 307° |
| 2026-04-20 21:18 | 38.11065 | 122.63296 | 24711 ft | 296 kts | 308° |
| 2026-04-20 21:19 | 38.12517 | 122.61428 | 24705 ft | 297 kts | 308° |
| 2026-04-20 21:19 | 38.13477 | 122.60195 | 24703 ft | 297 kts | 308° |
| 2026-04-20 21:19 | 38.14925 | 122.58332 | 24702 ft | 297 kts | 308° |
| 2026-04-20 21:20 | 38.17822 | 122.54604 | 24706 ft | 297 kts | 308° |
| 2026-04-20 21:20 | 38.19273 | 122.52736 | 24706 ft | 297 kts | 308° |
| 2026-04-20 21:20 | 38.20727 | 122.50859 | 24707 ft | 297 kts | 308° |
| 2026-04-20 21:20 | 38.22180 | 122.48986 | 24727 ft | 297 kts | 308° |
| 2026-04-20 21:21 | 38.23747 | 122.47241 | 24727 ft | 305 kts | 318° |
| 2026-04-20 21:21 | 38.25747 | 122.46123 | 24742 ft | 332 kts | 337° |
| 2026-04-20 21:21 | 38.28128 | 122.46046 | 25189 ft | 357 kts | 350° |
| 2026-04-20 21:21 | 38.30583 | 122.46393 | 25590 ft | 364 kts | 353° |
| 2026-04-20 21:22 | 38.33130 | 122.46865 | 25688 ft | 363 kts | 353° |
| 2026-04-20 21:22 | 38.35626 | 122.47242 | 25704 ft | 360 kts | 351° |
| 2026-04-20 21:22 | 38.38116 | 122.47567 | 25698 ft | 359 kts | 351° |
| 2026-04-20 21:22 | 38.40598 | 122.47886 | 25697 ft | 359 kts | 351° |
| 2026-04-20 21:23 | 38.43071 | 122.48222 | 25697 ft | 360 kts | 352° |
| 2026-04-20 21:23 | 38.45582 | 122.48592 | 25695 ft | 361 kts | 352° |
| 2026-04-20 21:23 | 38.48043 | 122.48975 | 25695 ft | 361 kts | 352° |
| 2026-04-20 21:23 | 38.50538 | 122.49374 | 25695 ft | 361 kts | 352° |
| 2026-04-20 21:24 | 38.53031 | 122.49774 | 25695 ft | 361 kts | 352° |
| 2026-04-20 21:24 | 38.55513 | 122.50175 | 25694 ft | 361 kts | 352° |
| 2026-04-20 21:24 | 38.58022 | 122.50583 | 25694 ft | 361 kts | 352° |
| 2026-04-20 21:24 | 38.60508 | 122.50987 | 25723 ft | 361 kts | 352° |
| 2026-04-20 21:25 | 38.63005 | 122.51390 | 25724 ft | 361 kts | 352° |
| 2026-04-20 21:25 | 38.65495 | 122.51790 | 25722 ft | 360 kts | 352° |
| 2026-04-20 21:25 | 38.67951 | 122.52183 | 25714 ft | 359 kts | 352° |
| 2026-04-20 21:25 | 38.70453 | 122.52583 | 25711 ft | 358 kts | 352° |
| 2026-04-20 21:26 | 38.72921 | 122.52978 | 25708 ft | 358 kts | 352° |
| 2026-04-20 21:26 | 38.75391 | 122.53377 | 25702 ft | 358 kts | 352° |
| 2026-04-20 21:26 | 38.77861 | 122.53774 | 25698 ft | 357 kts | 352° |
| 2026-04-20 21:26 | 38.80326 | 122.54169 | 25702 ft | 356 kts | 352° |
| 2026-04-20 21:27 | 38.82779 | 122.54565 | 25692 ft | 354 kts | 352° |
| 2026-04-20 21:27 | 38.85216 | 122.54960 | 25683 ft | 353 kts | 352° |
| 2026-04-20 21:27 | 38.87653 | 122.55353 | 25676 ft | 353 kts | 352° |
| 2026-04-20 21:27 | 38.90091 | 122.55742 | 25665 ft | 353 kts | 352° |
| 2026-04-20 21:28 | 38.92484 | 122.56125 | 25662 ft | 353 kts | 352° |
| 2026-04-20 21:28 | 38.94974 | 122.56524 | 25660 ft | 354 kts | 352° |
| 2026-04-20 21:28 | 38.97378 | 122.56911 | 25665 ft | 354 kts | 352° |
| 2026-04-20 21:28 | 38.99826 | 122.57308 | 25683 ft | 354 kts | 352° |
| 2026-04-20 21:29 | 39.02271 | 122.57707 | 25683 ft | 354 kts | 352° |
| 2026-04-20 21:29 | 39.04720 | 122.58107 | 25682 ft | 354 kts | 352° |
| 2026-04-20 21:29 | 39.07154 | 122.58505 | 25675 ft | 354 kts | 352° |
| 2026-04-20 21:29 | 39.09607 | 122.58905 | 25674 ft | 354 kts | 352° |
| 2026-04-20 21:30 | 39.12041 | 122.59301 | 25672 ft | 354 kts | 352° |
| 2026-04-20 21:30 | 39.14489 | 122.59693 | 25666 ft | 354 kts | 352° |
| 2026-04-20 21:30 | 39.16892 | 122.60079 | 25712 ft | 354 kts | 352° |
| 2026-04-20 21:30 | 39.19360 | 122.60478 | 25705 ft | 354 kts | 352° |
| 2026-04-20 21:31 | 39.21820 | 122.60878 | 25699 ft | 354 kts | 352° |
| 2026-04-20 21:31 | 39.24264 | 122.61276 | 25691 ft | 354 kts | 352° |
| 2026-04-20 21:31 | 39.26722 | 122.61953 | 25676 ft | 372 kts | 4° |
| 2026-04-20 21:31 | 39.29146 | 122.63382 | 25669 ft | 392 kts | 14° |
| 2026-04-20 21:32 | 39.31531 | 122.65088 | 25660 ft | 392 kts | 14° |
| 2026-04-20 21:32 | 39.33916 | 122.66796 | 25682 ft | 392 kts | 14° |
| 2026-04-20 21:32 | 39.36302 | 122.68506 | 25672 ft | 393 kts | 14° |
| 2026-04-20 21:32 | 39.38696 | 122.70221 | 25666 ft | 393 kts | 14° |
| 2026-04-20 21:33 | 39.41086 | 122.71934 | 25657 ft | 393 kts | 14° |
| 2026-04-20 21:33 | 39.43438 | 122.73621 | 25654 ft | 393 kts | 14° |
| 2026-04-20 21:33 | 39.45873 | 122.75369 | 25652 ft | 393 kts | 14° |
| 2026-04-20 21:33 | 39.48255 | 122.77078 | 25650 ft | 393 kts | 14° |
| 2026-04-20 21:34 | 39.50609 | 122.78765 | 25687 ft | 393 kts | 14° |
| 2026-04-20 21:34 | 39.53018 | 122.80485 | 25675 ft | 393 kts | 14° |
| 2026-04-20 21:34 | 39.55397 | 122.82183 | 25658 ft | 393 kts | 14° |
| 2026-04-20 21:34 | 39.57771 | 122.83889 | 25412 ft | 386 kts | 14° |
| 2026-04-20 21:35 | 39.60047 | 122.85536 | 25172 ft | 379 kts | 14° |
| 2026-04-20 21:35 | 39.62339 | 122.87194 | 24928 ft | 375 kts | 14° |
| 2026-04-20 21:35 | 39.64616 | 122.88833 | 24708 ft | 373 kts | 15° |
| 2026-04-20 21:35 | 39.66877 | 122.90461 | 24467 ft | 371 kts | 15° |
| 2026-04-20 21:36 | 39.69130 | 122.92079 | 24236 ft | 369 kts | 15° |
| 2026-04-20 21:36 | 39.71369 | 122.93687 | 24006 ft | 367 kts | 15° |
| 2026-04-20 21:36 | 39.73604 | 122.95295 | 23771 ft | 366 kts | 16° |
| 2026-04-20 21:36 | 39.75825 | 122.96894 | 23528 ft | 365 kts | 16° |
| 2026-04-20 21:37 | 39.78020 | 122.98477 | 23248 ft | 363 kts | 16° |
| 2026-04-20 21:37 | 39.80233 | 123.00078 | 22995 ft | 361 kts | 17° |
| 2026-04-20 21:37 | 39.82415 | 123.01663 | 22726 ft | 356 kts | 18° |
| 2026-04-20 21:37 | 39.84571 | 123.03234 | 22610 ft | 354 kts | 18° |
| 2026-04-20 21:38 | 39.86710 | 123.04784 | 22634 ft | 354 kts | 17° |
| 2026-04-20 21:38 | 39.88863 | 123.06339 | 22629 ft | 354 kts | 17° |
| 2026-04-20 21:38 | 39.91017 | 123.07896 | 22634 ft | 354 kts | 17° |
| 2026-04-20 21:38 | 39.93183 | 123.09464 | 22632 ft | 354 kts | 17° |
| 2026-04-20 21:39 | 39.95336 | 123.11025 | 22653 ft | 354 kts | 18° |
| 2026-04-20 21:39 | 39.97467 | 123.12573 | 22449 ft | 354 kts | 18° |
| 2026-04-20 21:39 | 39.99601 | 123.14128 | 22016 ft | 351 kts | 18° |
| 2026-04-20 21:39 | 40.01743 | 123.15694 | 21611 ft | 348 kts | 18° |
| 2026-04-20 21:40 | 40.03793 | 123.17195 | 21231 ft | 345 kts | 18° |
| 2026-04-20 21:40 | 40.05870 | 123.18708 | 20847 ft | 343 kts | 18° |
| 2026-04-20 21:40 | 40.07941 | 123.20201 | 20453 ft | 341 kts | 18° |
| 2026-04-20 21:40 | 40.09949 | 123.21643 | 20082 ft | 339 kts | 18° |
| 2026-04-20 21:41 | 40.12064 | 123.23162 | 19701 ft | 337 kts | 18° |
| 2026-04-20 21:41 | 40.14100 | 123.24628 | 19327 ft | 335 kts | 18° |
| 2026-04-20 21:41 | 40.16143 | 123.26098 | 18960 ft | 333 kts | 18° |
| 2026-04-20 21:41 | 40.18165 | 123.27555 | 18600 ft | 331 kts | 18° |
| 2026-04-20 21:42 | 40.20182 | 123.29010 | 18235 ft | 330 kts | 18° |
| 2026-04-20 21:42 | 40.22185 | 123.30457 | 17816 ft | 328 kts | 19° |
| 2026-04-20 21:42 | 40.24183 | 123.31901 | 17407 ft | 327 kts | 19° |
| 2026-04-20 21:42 | 40.26151 | 123.33328 | 17022 ft | 325 kts | 18° |
| 2026-04-20 21:43 | 40.28135 | 123.34768 | 16735 ft | 321 kts | 19° |
| 2026-04-20 21:43 | 40.30064 | 123.36168 | 16727 ft | 319 kts | 18° |
| 2026-04-20 21:43 | 40.32021 | 123.37581 | 16724 ft | 318 kts | 18° |
| 2026-04-20 21:43 | 40.33962 | 123.38983 | 16729 ft | 319 kts | 18° |
| 2026-04-20 21:44 | 40.35899 | 123.40387 | 16721 ft | 319 kts | 18° |
| 2026-04-20 21:44 | 40.37840 | 123.41795 | 16725 ft | 319 kts | 18° |
| 2026-04-20 21:44 | 40.39784 | 123.43207 | 16734 ft | 319 kts | 18° |
| 2026-04-20 21:44 | 40.41724 | 123.44617 | 16760 ft | 319 kts | 18° |
| 2026-04-20 21:45 | 40.43656 | 123.46027 | 16730 ft | 318 kts | 18° |
| 2026-04-20 21:45 | 40.45593 | 123.47438 | 16733 ft | 318 kts | 18° |
| 2026-04-20 21:45 | 40.47526 | 123.48846 | 16734 ft | 318 kts | 18° |
| 2026-04-20 21:45 | 40.49457 | 123.50252 | 16529 ft | 317 kts | 18° |
| 2026-04-20 21:46 | 40.51388 | 123.51663 | 16259 ft | 316 kts | 18° |
| 2026-04-20 21:46 | 40.53304 | 123.53066 | 15999 ft | 314 kts | 18° |
| 2026-04-20 21:46 | 40.55206 | 123.54459 | 15741 ft | 313 kts | 19° |
| 2026-04-20 21:46 | 40.57105 | 123.55849 | 15507 ft | 311 kts | 18° |
| 2026-04-20 21:47 | 40.58923 | 123.57386 | 15251 ft | 317 kts | 26° |
| 2026-04-20 21:47 | 40.60677 | 123.59189 | 14997 ft | 317 kts | 28° |
| 2026-04-20 21:47 | 40.62405 | 123.60975 | 14743 ft | 316 kts | 28° |
| 2026-04-20 21:47 | 40.64095 | 123.62723 | 14499 ft | 314 kts | 28° |
| 2026-04-20 21:48 | 40.65806 | 123.64491 | 14252 ft | 313 kts | 28° |
| 2026-04-20 21:48 | 40.67533 | 123.66274 | 14004 ft | 312 kts | 28° |
| 2026-04-20 21:48 | 40.69234 | 123.68033 | 13840 ft | 311 kts | 28° |
| 2026-04-20 21:48 | 40.70921 | 123.69783 | 13810 ft | 310 kts | 28° |
| 2026-04-20 21:49 | 40.72626 | 123.71555 | 13836 ft | 310 kts | 27° |
| 2026-04-20 21:49 | 40.74314 | 123.73307 | 13827 ft | 309 kts | 27° |
| 2026-04-20 21:49 | 40.75999 | 123.75051 | 13824 ft | 309 kts | 27° |
| 2026-04-20 21:49 | 40.77683 | 123.76788 | 13823 ft | 308 kts | 27° |
| 2026-04-20 21:50 | 40.79370 | 123.78527 | 13830 ft | 309 kts | 27° |
| 2026-04-20 21:50 | 40.81076 | 123.80292 | 13826 ft | 309 kts | 27° |
| 2026-04-20 21:50 | 40.82767 | 123.82048 | 13824 ft | 309 kts | 27° |
| 2026-04-20 21:50 | 40.84453 | 123.83802 | 13825 ft | 309 kts | 27° |
| 2026-04-20 21:51 | 40.86142 | 123.85560 | 13835 ft | 309 kts | 27° |
| 2026-04-20 21:51 | 40.87818 | 123.87312 | 13830 ft | 305 kts | 27° |
| 2026-04-20 21:51 | 40.89467 | 123.89037 | 13827 ft | 305 kts | 27° |
| 2026-04-20 21:51 | 40.91172 | 123.90698 | 13823 ft | 299 kts | 21° |
| 2026-04-20 21:52 | 40.92961 | 123.92037 | 13818 ft | 294 kts | 17° |
| 2026-04-20 21:52 | 40.94761 | 123.93319 | 13819 ft | 295 kts | 17° |
| 2026-04-20 21:52 | 40.96572 | 123.94615 | 13820 ft | 295 kts | 18° |
| 2026-04-20 21:52 | 40.98374 | 123.95906 | 13818 ft | 295 kts | 18° |
| 2026-04-20 21:53 | 41.00110 | 123.97154 | 13819 ft | 295 kts | 18° |
| 2026-04-20 21:53 | 41.01979 | 123.98497 | 13850 ft | 295 kts | 18° |
| 2026-04-20 21:53 | 41.03767 | 123.99735 | 13820 ft | 284 kts | 12° |
| 2026-04-20 21:53 | 41.05623 | 124.00276 | 13813 ft | 266 kts | 352° |
| 2026-04-20 21:54 | 41.07426 | 124.00066 | 13808 ft | 259 kts | 345° |
| 2026-04-20 21:54 | 41.09218 | 123.99763 | 13811 ft | 260 kts | 345° |
| 2026-04-20 21:54 | 41.11013 | 123.99459 | 13814 ft | 260 kts | 345° |
| 2026-04-20 21:54 | 41.12805 | 123.99152 | 13812 ft | 260 kts | 345° |
| 2026-04-20 21:55 | 41.14601 | 123.98845 | 13807 ft | 261 kts | 345° |
| 2026-04-20 21:55 | 41.16368 | 123.98544 | 13805 ft | 261 kts | 345° |
| 2026-04-20 21:55 | 41.18204 | 123.98227 | 13807 ft | 261 kts | 345° |
| 2026-04-20 21:55 | 41.20008 | 123.97916 | 13805 ft | 261 kts | 345° |
| 2026-04-20 21:56 | 41.21813 | 123.97607 | 13814 ft | 261 kts | 345° |
| 2026-04-20 21:56 | 41.23577 | 123.97309 | 13717 ft | 262 kts | 346° |
| 2026-04-20 21:56 | 41.25379 | 123.97005 | 13385 ft | 260 kts | 346° |
| 2026-04-20 21:56 | 41.27178 | 123.96701 | 13049 ft | 259 kts | 345° |
| 2026-04-20 21:57 | 41.28954 | 123.96402 | 12723 ft | 259 kts | 346° |
| 2026-04-20 21:57 | 41.30772 | 123.96094 | 12401 ft | 259 kts | 345° |
| 2026-04-20 21:57 | 41.32555 | 123.95786 | 12084 ft | 258 kts | 345° |
| 2026-04-20 21:57 | 41.34318 | 123.95481 | 11771 ft | 259 kts | 346° |
| 2026-04-20 21:58 | 41.36093 | 123.95175 | 11458 ft | 258 kts | 346° |
| 2026-04-20 21:58 | 41.37885 | 123.94867 | 11150 ft | 258 kts | 346° |
| 2026-04-20 21:58 | 41.39670 | 123.94557 | 10865 ft | 258 kts | 346° |
| 2026-04-20 21:58 | 41.41449 | 123.94250 | 10789 ft | 259 kts | 345° |
| 2026-04-20 21:59 | 41.43243 | 123.93939 | 10808 ft | 260 kts | 346° |
| 2026-04-20 21:59 | 41.45022 | 123.93631 | 10665 ft | 260 kts | 346° |
| 2026-04-20 21:59 | 41.46828 | 123.93321 | 10328 ft | 258 kts | 346° |
| 2026-04-20 21:59 | 41.48599 | 123.93018 | 9963 ft | 259 kts | 346° |
| 2026-04-20 22:00 | 41.50394 | 123.92710 | 9560 ft | 258 kts | 346° |
| 2026-04-20 22:00 | 41.52171 | 123.92403 | 9150 ft | 257 kts | 346° |
| 2026-04-20 22:00 | 41.53941 | 123.92098 | 8750 ft | 256 kts | 346° |
| 2026-04-20 22:00 | 41.55709 | 123.91794 | 8356 ft | 256 kts | 346° |
| 2026-04-20 22:01 | 41.57456 | 123.91493 | 7950 ft | 255 kts | 346° |
| 2026-04-20 22:01 | 41.59195 | 123.91199 | 7802 ft | 250 kts | 346° |
| 2026-04-20 22:01 | 41.60928 | 123.90902 | 7663 ft | 250 kts | 346° |
| 2026-04-20 22:01 | 41.62637 | 123.90603 | 7498 ft | 251 kts | 346° |
| 2026-04-20 22:02 | 41.64388 | 123.90296 | 7239 ft | 251 kts | 346° |
| 2026-04-20 22:02 | 41.66120 | 123.89996 | 7001 ft | 249 kts | 346° |
| 2026-04-20 22:02 | 41.67813 | 123.89706 | 6750 ft | 242 kts | 346° |
| 2026-04-20 22:02 | 41.69458 | 123.89423 | 6502 ft | 237 kts | 346° |
| 2026-04-20 22:03 | 41.71077 | 123.89143 | 6243 ft | 231 kts | 346° |
| 2026-04-20 22:03 | 41.72625 | 123.88875 | 5988 ft | 227 kts | 346° |
| 2026-04-20 22:03 | 41.74190 | 123.88604 | 5725 ft | 226 kts | 346° |
| 2026-04-20 22:03 | 41.75762 | 123.88331 | 5466 ft | 226 kts | 346° |
| 2026-04-20 22:04 | 41.77310 | 123.88023 | 5210 ft | 221 kts | 340° |
| 2026-04-20 22:04 | 41.78636 | 123.87210 | 5169 ft | 204 kts | 320° |
| 2026-04-20 22:04 | 41.79697 | 123.86023 | 4968 ft | 198 kts | 315° |
| 2026-04-20 22:04 | 41.80739 | 123.84808 | 4710 ft | 196 kts | 315° |
| 2026-04-20 22:05 | 41.81757 | 123.83622 | 4451 ft | 195 kts | 315° |
| 2026-04-20 22:05 | 41.82783 | 123.82430 | 4189 ft | 194 kts | 315° |
| 2026-04-20 22:05 | 41.83670 | 123.81102 | 3968 ft | 189 kts | 294° |
| 2026-04-20 22:05 | 41.83894 | 123.79380 | 3899 ft | 191 kts | 264° |
| 2026-04-20 22:06 | 41.83347 | 123.77754 | 3906 ft | 199 kts | 231° |
| 2026-04-20 22:06 | 41.82299 | 123.76516 | 3905 ft | 201 kts | 229° |
| 2026-04-20 22:06 | 41.81366 | 123.75152 | 3906 ft | 193 kts | 234° |
| 2026-04-20 22:06 | 41.80539 | 123.73820 | 3927 ft | 179 kts | 236° |
| 2026-04-20 22:07 | 41.80032 | 123.72992 | 3941 ft | 178 kts | 236° |
| 2026-04-20 22:07 | 41.79230 | 123.71694 | 3942 ft | 177 kts | 235° |
| 2026-04-20 22:07 | 41.78442 | 123.70433 | 3837 ft | 177 kts | 235° |
| 2026-04-20 22:07 | 41.77658 | 123.69201 | 3703 ft | 168 kts | 234° |
| 2026-04-20 22:08 | 41.76913 | 123.68039 | 3570 ft | 161 kts | 234° |
| 2026-04-20 22:08 | 41.76187 | 123.66914 | 3451 ft | 158 kts | 234° |
| 2026-04-20 22:08 | 41.75474 | 123.65808 | 3170 ft | 165 kts | 234° |
| 2026-04-20 22:08 | 41.74697 | 123.64600 | 2758 ft | 174 kts | 233° |
| 2026-04-20 22:09 | 41.73925 | 123.63414 | 2505 ft | 172 kts | 232° |
| 2026-04-20 22:09 | 41.73121 | 123.62184 | 2247 ft | 171 kts | 230° |
| 2026-04-20 22:09 | 41.72333 | 123.60982 | 2043 ft | 165 kts | 230° |
| 2026-04-20 22:09 | 41.71605 | 123.59888 | 2008 ft | 156 kts | 227° |
| 2026-04-20 22:10 | 41.70802 | 123.58951 | 2005 ft | 153 kts | 220° |
| 2026-04-20 22:10 | 41.70032 | 123.57988 | 1858 ft | 149 kts | 228° |
| 2026-04-20 22:10 | 41.69355 | 123.56964 | 1663 ft | 144 kts | 230° |
| 2026-04-20 22:10 | 41.68717 | 123.55939 | 1423 ft | 141 kts | 230° |
| 2026-04-20 22:11 | 41.68119 | 123.54962 | 1160 ft | 134 kts | 230° |
| 2026-04-20 22:11 | 41.67527 | 123.54021 | 886 ft | 131 kts | 230° |
| 2026-04-20 22:11 | 41.66944 | 123.53087 | 661 ft | 128 kts | 230° |
| 2026-04-20 22:11 | 41.66364 | 123.52161 | 622 ft | 130 kts | 229° |
| 2026-04-20 22:12 | 41.65776 | 123.51244 | 603 ft | 130 kts | 229° |
| 2026-04-20 22:12 | 41.65185 | 123.50329 | 589 ft | 130 kts | 228° |
| 2026-04-20 22:12 | 41.64591 | 123.49421 | 567 ft | 129 kts | 227° |
| 2026-04-20 22:12 | 41.63997 | 123.48523 | 548 ft | 129 kts | 227° |
| 2026-04-20 22:13 | 41.63398 | 123.47637 | 536 ft | 129 kts | 227° |
| 2026-04-20 22:13 | 41.62797 | 123.46741 | 568 ft | 129 kts | 227° |
| 2026-04-20 22:13 | 41.62161 | 123.45829 | 716 ft | 144 kts | 225° |
| 2026-04-20 22:13 | 41.61475 | 123.44883 | 979 ft | 142 kts | 226° |
| 2026-04-20 22:14 | 41.60810 | 123.43927 | 1021 ft | 138 kts | 227° |
| 2026-04-20 22:14 | 41.60160 | 123.42968 | 1217 ft | 137 kts | 228° |
| 2026-04-20 22:14 | 41.59506 | 123.41999 | 1443 ft | 155 kts | 228° |
| 2026-04-20 22:14 | 41.58824 | 123.40809 | 1653 ft | 167 kts | 245° |
| 2026-04-20 22:15 | 41.58688 | 123.39248 | 1973 ft | 176 kts | 269° |
| 2026-04-20 22:15 | 41.59168 | 123.37750 | 2012 ft | 187 kts | 308° |
| 2026-04-20 22:15 | 41.60157 | 123.36632 | 2009 ft | 189 kts | 319° |
| 2026-04-20 22:15 | 41.61230 | 123.35594 | 2007 ft | 189 kts | 322° |
| 2026-04-20 22:16 | 41.62502 | 123.35134 | 1998 ft | 198 kts | 2° |
| 2026-04-20 22:16 | 41.63758 | 123.35856 | 2010 ft | 200 kts | 40° |
| 2026-04-20 22:16 | 41.64788 | 123.37196 | 2015 ft | 210 kts | 44° |
| 2026-04-20 22:16 | 41.65784 | 123.38574 | 2009 ft | 207 kts | 49° |
| 2026-04-20 22:17 | 41.66722 | 123.40040 | 2008 ft | 205 kts | 50° |
| 2026-04-20 22:17 | 41.67638 | 123.41499 | 2008 ft | 205 kts | 50° |
| 2026-04-20 22:17 | 41.68556 | 123.42963 | 2008 ft | 205 kts | 50° |
| 2026-04-20 22:17 | 41.69473 | 123.44424 | 2008 ft | 205 kts | 50° |
| 2026-04-20 22:18 | 41.70390 | 123.45875 | 2008 ft | 205 kts | 50° |
| 2026-04-20 22:18 | 41.71315 | 123.47341 | 2007 ft | 205 kts | 50° |
| 2026-04-20 22:18 | 41.72209 | 123.48764 | 2010 ft | 205 kts | 50° |
| 2026-04-20 22:18 | 41.73110 | 123.50204 | 2008 ft | 205 kts | 50° |
| 2026-04-20 22:19 | 41.74025 | 123.51667 | 2011 ft | 205 kts | 50° |
| 2026-04-20 22:19 | 41.74859 | 123.53181 | 1992 ft | 201 kts | 66° |
| 2026-04-20 22:19 | 41.74985 | 123.54939 | 1998 ft | 184 kts | 108° |
| 2026-04-20 22:19 | 41.74354 | 123.56328 | 2018 ft | 172 kts | 136° |
| 2026-04-20 22:20 | 41.73519 | 123.57461 | 2011 ft | 167 kts | 144° |
| 2026-04-20 22:20 | 41.72539 | 123.58269 | 2003 ft | 167 kts | 166° |
| 2026-04-20 22:20 | 41.71463 | 123.58435 | 1988 ft | 147 kts | 191° |
| 2026-04-20 22:20 | 41.70559 | 123.58034 | 1846 ft | 130 kts | 213° |
| 2026-04-20 22:21 | 41.69898 | 123.57277 | 1728 ft | 126 kts | 231° |
| 2026-04-20 22:21 | 41.69313 | 123.56391 | 1551 ft | 126 kts | 230° |
| 2026-04-20 22:21 | 41.68735 | 123.55515 | 1383 ft | 126 kts | 229° |
| 2026-04-20 22:21 | 41.68169 | 123.54658 | 1210 ft | 126 kts | 229° |
| 2026-04-20 22:22 | 41.67576 | 123.53760 | 1021 ft | 126 kts | 229° |
| 2026-04-20 22:22 | 41.66991 | 123.52874 | 842 ft | 128 kts | 229° |
| 2026-04-20 22:22 | 41.66410 | 123.51992 | 671 ft | 129 kts | 229° |
| 2026-04-20 22:22 | 41.65819 | 123.51082 | 492 ft | 129 kts | 229° |
| 2026-04-20 22:23 | 41.65230 | 123.50192 | 332 ft | 129 kts | 228° |
| 2026-04-20 22:23 | 41.64636 | 123.49310 | 214 ft | 119 kts | 228° |
| 2026-04-20 22:23 | 41.64181 | 123.48612 | 206 ft | 79 kts | 228° |
| 2026-04-20 22:23 | 41.63885 | 123.48166 | 209 ft | 43 kts | 228° |
| 2026-04-20 22:24 | 41.63698 | 123.47962 | 204 ft | 27 kts | 206° |
| 2026-04-20 22:24 | 41.63570 | 123.47898 | 209 ft | 16 kts | 199° |
| 2026-04-20 22:24 | 41.63516 | 123.47938 | 200 ft | 10 kts | 99° |
| 2026-04-20 22:24 | 41.63548 | 123.48022 | 200 ft | 11 kts | 49° |
| 2026-04-20 22:25 | 41.63601 | 123.48103 | 210 ft | 12 kts | 49° |
| 2026-04-20 22:25 | 41.63660 | 123.48191 | 200 ft | 13 kts | 48° |
| 2026-04-20 22:25 | 41.63722 | 123.48286 | 207 ft | 14 kts | 49° |
| 2026-04-20 22:25 | 41.63792 | 123.48392 | 211 ft | 16 kts | 48° |
| 2026-04-20 22:26 | 41.63853 | 123.48483 | 200 ft | 8 kts | 49° |
| 2026-04-20 22:26 | 41.63864 | 123.48536 | 205 ft | 1 kts | 102° |
| 2026-04-20 22:26 | 41.63860 | 123.48548 | 200 ft | 2 kts | 115° |
| 2026-04-20 22:27 | 41.63852 | 123.48627 | 204 ft | 9 kts | 59° |
| 2026-04-20 22:27 | 41.63909 | 123.48714 | 210 ft | 15 kts | 49° |
| 2026-04-20 22:27 | 41.63964 | 123.48797 | 200 ft | 9 kts | 49° |
| 2026-04-20 22:27 | 41.63998 | 123.48849 | 206 ft | 4 kts | 49° |
| 2026-04-20 22:28 | 41.64018 | 123.48878 | 200 ft | 1 kts | 48° |
| 2026-04-20 22:28 | 41.64032 | 123.48901 | 213 ft | 0 kts | 57° |
| 2026-04-20 22:28 | 41.64030 | 123.48923 | 208 ft | 5 kts | 108° |
| 2026-04-20 22:28 | 41.63994 | 123.48970 | 204 ft | 9 kts | 139° |
| 2026-04-20 22:29 | 41.63968 | 123.49001 | 207 ft | 0 kts | 139° |